EST,Max TemperatureF,Mean TemperatureF,Min TemperatureF,Max Dew PointF,MeanDew PointF,Min DewpointF,Max Humidity, Mean Humidity, Min Humidity, Max Sea Level PressureIn, Mean Sea Level PressureIn, Min Sea Level PressureIn, Max VisibilityMiles, Mean VisibilityMiles, Min VisibilityMiles, Max Wind SpeedMPH, Mean Wind SpeedMPH, Max Gust SpeedMPH,PrecipitationIn, CloudCover, Events, WindDirDegrees
2013-2-1,18,14,10,12,7,2,85,71,57,30.19,30.07,29.83,10,9,2,17,11,25,0.00,7,Snow,259
2013-2-2,19,9,-1,14,8,-5,91,81,69,30.14,30.01,29.94,10,6,1,17,8,22,0.00,7,Snow,250
2013-2-3,19,8,-4,13,4,-9,88,78,63,29.98,29.89,29.80,10,9,4,13,4,23,0.00,4,Snow,259
2013-2-4,20,12,5,15,11,3,90,82,72,29.98,29.93,29.87,10,7,2,6,2,,0.00,7,Snow,232
2013-2-5,26,13,0,26,13,-4,96,84,66,29.93,29.85,29.77,10,8,2,14,3,23,0.00,6,Snow,220
2013-2-6,29,16,2,18,12,0,93,74,55,30.27,30.18,29.94,10,10,5,9,3,16,0.00,2,Snow,222
2013-2-7,33,28,23,26,22,17,91,76,67,30.26,30.11,29.92,10,10,2,9,5,16,0.00,7,Snow,116
2013-2-8,28,24,19,28,22,15,96,87,79,30.31,30.04,29.81,10,5,1,21,11,31,0.04,8,Snow,356
2013-2-9,30,14,-1,19,12,-4,95,80,48,30.42,30.35,30.25,10,9,0,7,3,,0.00,2,Fog-Snow,157
2013-2-10,37,27,17,34,23,16,96,82,65,30.25,30.02,29.67,10,10,5,16,7,25,0.04,5,Rain,128
2013-2-11,43,38,32,40,31,25,94,80,64,29.79,29.61,29.51,10,10,7,25,15,38,0.00,8,Rain,229
2013-2-12,32,30,27,26,23,20,80,75,70,30.00,29.92,29.80,10,10,5,18,12,28,0.00,8,Snow,262
2013-2-13,35,30,26,26,23,20,93,78,63,29.90,29.79,29.71,10,10,7,12,6,16,0.00,6,,244
2013-2-14,37,32,28,33,30,26,93,88,83,29.78,29.70,29.64,10,6,2,23,6,31,0.00,7,Rain-Snow,201
2013-2-15,31,26,21,29,17,13,91,70,58,30.08,29.99,29.79,10,9,1,14,9,26,0.00,7,Snow,288
2013-2-16,23,14,5,19,12,2,95,85,61,30.08,30.01,29.95,10,7,0,9,3,16,0.00,6,Snow,308
2013-2-17,20,10,1,12,4,-2,90,74,48,30.18,30.12,30.02,10,10,5,13,6,21,0.00,2,Snow,314
2013-2-18,43,22,2,32,18,-1,88,68,56,30.18,29.92,29.57,10,10,10,20,7,24,0.00,3,,150
2013-2-19,43,30,18,38,25,12,92,81,66,29.85,29.59,29.37,10,8,2,25,16,37,0.05,8,Rain-Snow,233
2013-2-20,21,18,15,14,11,6,88,72,62,30.20,30.05,29.85,10,8,1,16,13,28,0.00,8,Snow,293
2013-2-21,21,18,14,20,12,9,94,79,69,30.37,30.31,30.20,10,9,4,9,6,,0.00,8,Snow,24
2013-2-22,32,26,19,31,24,16,98,91,84,30.25,29.99,29.85,10,6,1,14,7,22,0.00,8,Snow,128
2013-2-23,33,29,25,31,24,20,92,79,63,29.89,29.85,29.83,10,9,2,16,10,22,0.00,8,Snow,235
2013-2-24,33,24,15,27,22,14,96,84,59,30.12,29.98,29.86,10,7,1,10,5,16,0.00,6,Snow,261
2013-2-25,37,23,9,24,17,7,96,79,53,30.21,30.16,30.11,10,9,7,6,0,,0.00,4,,100
2013-2-26,35,30,25,32,26,21,99,84,70,30.13,29.86,29.55,10,7,0,17,7,28,0.13,4,Rain-Snow,70
2013-2-27,35,34,32,34,32,32,99,97,92,29.55,29.51,29.47,10,4,0,10,5,18,0.05,8,Fog-Rain-Snow,115
2013-2-28,33,30,28,32,29,24,100,90,80,29.94,29.73,29.53,10,7,0,18,8,25,0.01,8,Snow,345